Time;durP1;ratioP1;P1;durP2;ratioP2;P2;SDS_P1;SDS_P2;PMS_P1;PMS_P2;Temp;Humidity;BMP_temperature;BMP_pressure;BME280_temperature;BME280_humidity;BME280_pressure;Samples;Min_cycle;Max_cycle;Signal;HPM_P1;HPM_P2
2023/06/10 00:02:00;;;;;;;10.95;5.30;;;15.40;99.90;;;;;;5087076;28;20068;-59
2023/06/10 00:04:27;;;;;;;12.15;5.28;;;15.40;99.90;;;;;;5075236;28;20432;-58
2023/06/10 00:06:53;;;;;;;9.35;4.55;;;15.40;99.90;;;;;;5080335;28;20024;-55
2023/06/10 00:09:19;;;;;;;8.15;4.38;;;15.30;99.90;;;;;;5072507;28;20036;-57
2023/06/10 00:11:44;;;;;;;6.85;4.45;;;15.30;99.90;;;;;;5088908;28;20032;-57
2023/06/10 00:14:10;;;;;;;13.25;4.82;;;15.30;99.90;;;;;;5081007;28;20021;-57
2023/06/10 00:16:36;;;;;;;6.32;4.20;;;15.20;99.90;;;;;;5088515;28;20131;-58
2023/06/10 00:19:04;;;;;;;12.85;4.35;;;15.20;99.90;;;;;;5076150;28;20036;-58
2023/06/10 00:21:39;;;;;;;6.82;3.80;;;15.20;99.90;;;;;;5094765;28;20492;-58
2023/06/10 00:24:06;;;;;;;8.63;4.82;;;15.10;99.90;;;;;;5076562;28;20032;-57
2023/06/10 00:26:32;;;;;;;8.65;4.82;;;15.10;99.90;;;;;;5087949;28;20028;-57
2023/06/10 00:28:58;;;;;;;8.85;4.25;;;15.10;99.90;;;;;;5082407;28;20079;-59
2023/06/10 00:31:26;;;;;;;9.43;4.15;;;15.00;99.90;;;;;;5100935;28;20071;-58
2023/06/10 00:33:51;;;;;;;7.13;3.67;;;15.00;99.90;;;;;;5085202;28;20028;-56
2023/06/10 00:36:17;;;;;;;10.00;4.40;;;15.00;99.90;;;;;;5101274;28;20397;-57
2023/06/10 00:38:42;;;;;;;7.68;3.97;;;15.00;99.90;;;;;;5093563;28;20500;-57
2023/06/10 00:41:08;;;;;;;10.48;4.13;;;14.90;99.90;;;;;;5088147;28;20273;-58
2023/06/10 00:43:33;;;;;;;9.13;4.45;;;14.90;99.90;;;;;;5094176;28;20059;-58
2023/06/10 00:45:59;;;;;;;9.75;4.03;;;14.90;99.90;;;;;;5091920;28;20031;-58
2023/06/10 00:48:25;;;;;;;8.57;3.72;;;14.80;99.90;;;;;;5107174;28;20479;-58
2023/06/10 00:50:51;;;;;;;7.18;3.90;;;14.80;99.90;;;;;;5091113;28;20495;-58
2023/06/10 00:53:17;;;;;;;9.07;4.65;;;14.80;99.90;;;;;;5109726;28;20055;-58
2023/06/10 00:55:43;;;;;;;8.68;4.65;;;14.70;99.90;;;;;;5111709;28;20031;-59
2023/06/10 00:58:08;;;;;;;8.88;4.28;;;14.70;99.90;;;;;;5095654;28;20023;-58
2023/06/10 01:00:34;;;;;;;7.47;4.40;;;14.70;99.90;;;;;;5112318;28;20164;-59
2023/06/10 01:02:59;;;;;;;7.93;4.22;;;14.70;99.90;;;;;;5095093;28;20505;-58
2023/06/10 01:05:26;;;;;;;7.45;3.75;;;14.60;99.90;;;;;;5097680;28;20027;-58
2023/06/10 01:08:20;;;;;;;9.48;4.35;;;14.60;99.90;;;;;;5109700;28;20423;-58
2023/06/10 01:10:55;;;;;;;8.48;4.50;;;14.60;99.90;;;;;;5112260;27;20047;-55
2023/06/10 01:13:23;;;;;;;6.30;4.40;;;14.60;99.90;;;;;;5084757;28;20023;-60
2023/06/10 01:15:50;;;;;;;9.05;4.25;;;14.50;99.90;;;;;;5112039;28;20022;-58
2023/06/10 01:18:16;;;;;;;7.55;4.15;;;14.50;99.90;;;;;;5097123;28;20035;-58
2023/06/10 01:20:42;;;;;;;6.80;4.10;;;14.50;99.90;;;;;;5112188;28;20269;-59
2023/06/10 01:23:09;;;;;;;10.60;4.95;;;14.40;99.90;;;;;;5096080;28;20020;-59
2023/06/10 01:25:38;;;;;;;6.90;3.97;;;14.40;99.90;;;;;;5112116;28;20050;-58
2023/06/10 01:28:15;;;;;;;8.15;4.68;;;14.40;99.90;;;;;;5094612;28;20070;-59
2023/06/10 01:31:07;;;;;;;11.52;5.30;;;14.40;99.90;;;;;;5111939;28;20027;-58
2023/06/10 01:33:35;;;;;;;7.60;4.25;;;14.40;99.90;;;;;;5086551;28;20030;-58
2023/06/10 01:36:03;;;;;;;8.82;4.38;;;14.30;99.90;;;;;;5091495;28;20063;-59
2023/06/10 01:38:33;;;;;;;7.97;4.00;;;14.30;99.90;;;;;;5107894;28;20032;-58
2023/06/10 01:40:59;;;;;;;8.60;4.70;;;14.30;99.90;;;;;;5091239;28;20480;-59
2023/06/10 01:43:25;;;;;;;14.13;5.53;;;14.30;99.90;;;;;;5097706;28;20531;-60
2023/06/10 01:45:50;;;;;;;6.50;4.57;;;14.30;99.90;;;;;;5109508;28;20035;-59
2023/06/10 01:48:16;;;;;;;11.77;5.97;;;14.20;99.90;;;;;;5089743;28;20032;-59
2023/06/10 01:50:43;;;;;;;14.75;5.80;;;14.30;99.90;;;;;;5109481;28;20024;-60
2023/06/10 01:53:09;;;;;;;9.15;4.60;;;14.20;99.90;;;;;;5089403;28;20024;-59
2023/06/10 01:55:34;;;;;;;12.32;5.30;;;14.20;99.90;;;;;;5110688;28;20389;-59
2023/06/10 01:58:00;;;;;;;10.70;4.70;;;14.20;99.90;;;;;;5089349;28;20116;-58
2023/06/10 02:00:25;;;;;;;9.38;4.78;;;14.20;99.90;;;;;;5110500;28;20043;-59
2023/06/10 02:02:51;;;;;;;7.70;4.55;;;14.20;99.90;;;;;;5089443;28;20028;-58
2023/06/10 02:05:16;;;;;;;7.85;4.20;;;14.20;99.90;;;;;;5095012;28;20028;-59
2023/06/10 02:07:42;;;;;;;12.15;5.72;;;14.20;99.90;;;;;;5103994;28;20032;-59
2023/06/10 02:10:08;;;;;;;9.75;4.28;;;14.20;99.90;;;;;;5090767;28;20395;-58
2023/06/10 02:12:33;;;;;;;11.38;4.68;;;14.10;99.90;;;;;;5104295;28;20032;-59
2023/06/10 02:14:59;;;;;;;8.57;4.53;;;14.10;99.90;;;;;;5090705;28;20020;-57
2023/06/10 02:17:24;;;;;;;9.65;5.10;;;14.10;99.90;;;;;;5105459;28;20052;-58
2023/06/10 02:19:52;;;;;;;10.18;4.47;;;14.10;99.90;;;;;;5090792;28;20582;-59
2023/06/10 02:22:22;;;;;;;9.93;4.93;;;14.10;99.90;;;;;;5106491;28;20019;-57
2023/06/10 02:24:48;;;;;;;11.88;4.95;;;14.10;99.90;;;;;;5090475;28;20024;-59
2023/06/10 02:27:15;;;;;;;9.38;5.55;;;14.10;99.90;;;;;;5106724;28;20036;-59
2023/06/10 02:29:41;;;;;;;10.55;5.53;;;14.10;99.90;;;;;;5090175;28;20136;-58
2023/06/10 02:32:07;;;;;;;10.45;6.30;;;14.10;99.90;;;;;;5107710;28;20115;-58
2023/06/10 02:34:33;;;;;;;9.05;5.20;;;14.10;99.90;;;;;;5090399;28;20616;-57
2023/06/10 02:36:59;;;;;;;9.80;5.75;;;14.10;99.90;;;;;;5109904;28;20036;-58
2023/06/10 02:39:25;;;;;;;9.95;5.30;;;14.10;99.90;;;;;;5088932;28;20036;-57
2023/06/10 02:41:50;;;;;;;9.55;5.90;;;14.10;99.90;;;;;;5109834;28;20511;-59
2023/06/10 02:44:17;;;;;;;7.47;4.65;;;14.10;99.90;;;;;;5088345;28;20032;-58
2023/06/10 02:46:43;;;;;;;10.68;4.80;;;14.10;99.90;;;;;;5109353;28;20088;-59
2023/06/10 02:49:08;;;;;;;6.35;4.18;;;14.20;99.90;;;;;;5087466;28;20678;-60
2023/06/10 02:51:33;;;;;;;9.00;5.32;;;14.20;99.90;;;;;;5108112;28;20038;-59
2023/06/10 02:53:59;;;;;;;10.18;5.35;;;14.20;99.90;;;;;;5088560;28;20048;-59
2023/06/10 02:56:25;;;;;;;10.57;4.95;;;14.20;99.90;;;;;;5109204;28;20165;-59
2023/06/10 02:58:51;;;;;;;12.57;4.95;;;14.20;99.90;;;;;;5088006;28;20110;-59
2023/06/10 03:01:18;;;;;;;10.52;5.43;;;14.20;99.90;;;;;;5089546;28;20387;-58
2023/06/10 03:03:46;;;;;;;11.30;5.60;;;14.20;99.90;;;;;;5090931;28;20023;-59
2023/06/10 03:06:12;;;;;;;14.70;6.20;;;14.30;99.90;;;;;;5104135;28;20049;-58
2023/06/10 03:08:38;;;;;;;7.30;5.22;;;14.30;99.90;;;;;;5088390;28;20016;-58
2023/06/10 03:11:04;;;;;;;6.57;4.78;;;14.30;99.90;;;;;;5109194;28;20031;-59
2023/06/10 03:13:29;;;;;;;10.75;5.00;;;14.40;99.90;;;;;;5088160;28;20497;-58
2023/06/10 03:15:55;;;;;;;7.25;4.68;;;14.40;99.90;;;;;;5109100;28;20080;-58
2023/06/10 03:18:22;;;;;;;9.90;6.13;;;14.50;99.90;;;;;;5088021;28;20100;-58
2023/06/10 03:20:48;;;;;;;10.73;5.22;;;14.50;99.90;;;;;;5109646;28;20112;-58
2023/06/10 03:23:13;;;;;;;7.93;4.82;;;14.50;99.90;;;;;;5088232;28;20105;-57
2023/06/10 03:25:39;;;;;;;10.30;5.70;;;14.50;99.90;;;;;;5109003;28;20398;-57
2023/06/10 03:28:04;;;;;;;9.82;5.45;;;14.60;99.90;;;;;;5090977;28;20039;-58
2023/06/10 03:30:30;;;;;;;7.53;4.93;;;14.60;99.90;;;;;;5109908;28;20521;-59
2023/06/10 03:32:56;;;;;;;9.25;4.82;;;14.60;99.90;;;;;;5087931;28;20028;-58
2023/06/10 03:35:22;;;;;;;7.65;4.80;;;14.70;99.90;;;;;;5108923;28;20107;-58
2023/06/10 03:37:47;;;;;;;9.48;5.00;;;14.70;99.90;;;;;;5087951;28;20036;-59
2023/06/10 03:40:13;;;;;;;11.13;4.55;;;14.70;99.90;;;;;;5108752;28;20113;-59
2023/06/10 03:42:38;;;;;;;6.78;4.78;;;14.80;99.90;;;;;;5087793;28;20412;-58
2023/06/10 03:45:04;;;;;;;9.55;5.22;;;14.90;99.90;;;;;;5108702;28;20031;-59
2023/06/10 03:47:37;;;;;;;7.15;4.97;;;15.00;99.90;;;;;;5087803;28;20085;-58
2023/06/10 03:50:03;;;;;;;8.45;5.13;;;15.00;99.90;;;;;;5108679;28;20038;-59
2023/06/10 03:52:29;;;;;;;7.20;4.90;;;15.10;99.90;;;;;;5087595;28;20024;-58
2023/06/10 03:54:55;;;;;;;7.45;4.90;;;15.20;99.90;;;;;;5108629;28;20484;-59
2023/06/10 03:57:20;;;;;;;7.45;5.18;;;15.40;99.90;;;;;;5097751;28;20032;-58
2023/06/10 03:59:46;;;;;;;12.45;5.07;;;15.50;99.90;;;;;;5089463;28;20028;-59
2023/06/10 04:02:11;;;;;;;9.20;5.40;;;15.70;99.90;;;;;;5105908;28;20028;-59
2023/06/10 04:04:37;;;;;;;7.93;4.97;;;15.90;99.90;;;;;;5091555;28;20472;-59
2023/06/10 04:07:04;;;;;;;8.63;5.00;;;16.20;99.90;;;;;;5102172;28;20509;-57
2023/06/10 04:09:30;;;;;;;7.50;4.53;;;16.80;99.90;;;;;;5087835;28;20507;-58
2023/06/10 04:11:55;;;;;;;10.05;4.85;;;17.20;99.90;;;;;;5106416;28;20098;-58
2023/06/10 04:14:21;;;;;;;9.10;4.85;;;17.50;99.90;;;;;;5109185;28;20103;-59
2023/06/10 04:16:46;;;;;;;6.88;4.47;;;17.90;99.90;;;;;;5093181;28;20043;-57
2023/06/10 04:19:12;;;;;;;7.18;4.13;;;18.40;99.90;;;;;;5107902;28;20027;-59
2023/06/10 04:21:37;;;;;;;7.82;4.75;;;19.20;99.30;;;;;;5091975;28;20076;-59
2023/06/10 04:24:03;;;;;;;6.60;4.25;;;19.80;96.00;;;;;;5109105;28;20689;-58
2023/06/10 04:26:28;;;;;;;7.28;4.40;;;20.40;94.10;;;;;;5090424;28;20058;-59
2023/06/10 04:28:54;;;;;;;8.10;4.78;;;20.90;91.50;;;;;;5098761;28;20048;-58
2023/06/10 04:31:20;;;;;;;8.70;5.18;;;21.30;79.30;;;;;;5106305;28;20038;-58
2023/06/10 04:33:45;;;;;;;11.68;4.97;;;21.60;68.80;;;;;;5109059;28;20095;-58
2023/06/10 04:36:11;;;;;;;7.90;4.60;;;21.80;73.00;;;;;;5087854;28;20130;-58
2023/06/10 04:38:37;;;;;;;12.35;5.40;;;22.10;69.80;;;;;;5108946;28;20377;-59
2023/06/10 04:41:02;;;;;;;8.27;5.10;;;21.90;64.10;;;;;;5088906;28;20032;-58
2023/06/10 04:43:28;;;;;;;6.85;4.80;;;22.20;64.40;;;;;;5074698;28;20060;-59
2023/06/10 04:45:55;;;;;;;6.65;4.20;;;22.60;69.10;;;;;;5093852;28;20081;-60
2023/06/10 04:48:20;;;;;;;8.75;5.10;;;23.10;67.40;;;;;;5093331;28;20028;-59
2023/06/10 04:50:46;;;;;;;9.45;4.93;;;23.40;57.40;;;;;;5108098;28;20545;-59
2023/06/10 04:53:11;;;;;;;6.60;4.18;;;23.80;63.60;;;;;;5087290;28;20032;-57
2023/06/10 04:55:36;;;;;;;6.10;4.35;;;24.20;60.20;;;;;;5108261;28;20032;-59
2023/06/10 04:58:02;;;;;;;7.32;3.88;;;24.40;59.90;;;;;;5087101;28;20070;-57
2023/06/10 05:00:28;;;;;;;8.18;4.95;;;24.90;58.40;;;;;;5108097;28;20032;-58
2023/06/10 05:02:53;;;;;;;11.75;5.35;;;24.70;48.60;;;;;;5096328;28;20046;-58
2023/06/10 05:05:19;;;;;;;8.05;4.93;;;24.70;47.70;;;;;;5091082;28;20034;-58
2023/06/10 05:07:44;;;;;;;8.98;4.65;;;24.80;47.30;;;;;;5098825;28;20407;-58
2023/06/10 05:10:12;;;;;;;7.82;5.45;;;24.70;46.20;;;;;;5107968;28;20037;-58
2023/06/10 05:12:40;;;;;;;6.65;4.53;;;24.90;47.00;;;;;;5094637;28;20073;-57
2023/06/10 05:15:07;;;;;;;8.07;4.75;;;24.70;49.30;;;;;;5112178;28;20116;-58
2023/06/10 05:17:33;;;;;;;8.52;4.78;;;25.20;48.60;;;;;;5090248;27;20032;-59
2023/06/10 05:19:58;;;;;;;8.70;4.55;;;25.30;48.30;;;;;;5092119;28;20092;-58
2023/06/10 05:22:24;;;;;;;8.80;4.85;;;25.80;39.60;;;;;;5104327;28;20020;-59
2023/06/10 05:24:51;;;;;;;10.90;5.47;;;25.40;43.40;;;;;;5091866;28;20461;-59
2023/06/10 05:27:16;;;;;;;7.07;4.75;;;25.20;41.60;;;;;;5105003;28;20028;-58
2023/06/10 05:29:42;;;;;;;5.25;4.22;;;25.80;43.20;;;;;;5091697;28;20052;-59
2023/06/10 05:32:08;;;;;;;6.65;4.50;;;26.40;38.80;;;;;;5109334;28;20024;-58
2023/06/10 05:34:34;;;;;;;7.45;4.28;;;26.60;39.10;;;;;;5112024;28;20023;-59
2023/06/10 05:36:59;;;;;;;8.88;4.20;;;26.80;38.40;;;;;;5090127;28;20031;-59
2023/06/10 05:39:25;;;;;;;8.98;4.75;;;26.80;33.50;;;;;;5091255;28;20077;-58
2023/06/10 05:41:50;;;;;;;8.50;5.45;;;26.30;36.40;;;;;;5108539;28;20046;-58
2023/06/10 05:44:16;;;;;;;5.90;4.65;;;26.70;31.70;;;;;;5091432;28;20024;-59
2023/06/10 05:46:41;;;;;;;8.55;5.28;;;26.50;34.00;;;;;;5110895;28;20604;-59
2023/06/10 05:49:07;;;;;;;6.32;4.47;;;26.60;31.90;;;;;;5090452;28;20078;-57
2023/06/10 05:51:32;;;;;;;6.68;4.68;;;27.40;34.30;;;;;;5111433;28;20074;-58
2023/06/10 05:53:58;;;;;;;6.63;3.97;;;28.70;31.00;;;;;;5091037;28;20032;-59
2023/06/10 05:56:24;;;;;;;7.43;4.43;;;29.50;27.90;;;;;;5111329;28;20040;-60
2023/06/10 05:58:51;;;;;;;7.10;5.20;;;29.30;25.20;;;;;;5091616;28;20032;-59
2023/06/10 06:01:16;;;;;;;7.13;4.53;;;28.40;26.60;;;;;;5091404;28;20070;-59
2023/06/10 06:03:42;;;;;;;6.82;4.50;;;29.10;26.40;;;;;;5102577;28;20445;-59
2023/06/10 06:06:07;;;;;;;6.72;4.80;;;29.30;25.00;;;;;;5086446;28;20070;-60
2023/06/10 06:08:33;;;;;;;8.27;4.75;;;29.60;23.20;;;;;;5103727;28;20073;-60
2023/06/10 06:10:58;;;;;;;8.98;4.55;;;29.70;20.80;;;;;;5107908;28;20042;-60
2023/06/10 06:13:24;;;;;;;6.53;5.28;;;29.60;21.20;;;;;;5089715;28;20082;-59
2023/06/10 06:15:50;;;;;;;8.30;4.75;;;29.00;21.40;;;;;;5088974;28;20028;-60
2023/06/10 06:18:15;;;;;;;7.93;5.03;;;29.60;20.70;;;;;;5092205;28;20069;-59
2023/06/10 06:20:41;;;;;;;7.75;4.88;;;29.20;20.60;;;;;;5110065;28;20019;-59
2023/06/10 06:23:09;;;;;;;9.20;5.25;;;29.40;20.40;;;;;;5092165;28;20442;-58
2023/06/10 06:25:35;;;;;;;6.90;4.43;;;29.80;19.20;;;;;;5108015;28;20076;-59
2023/06/10 06:28:01;;;;;;;5.65;4.38;;;30.10;18.80;;;;;;5076616;28;20040;-59
2023/06/10 06:30:26;;;;;;;5.30;4.50;;;30.90;19.50;;;;;;5108990;28;20571;-59
2023/06/10 06:32:52;;;;;;;10.13;5.00;;;31.60;17.40;;;;;;5088080;28;20062;-59
2023/06/10 06:35:18;;;;;;;8.48;5.65;;;31.40;16.40;;;;;;5108700;28;20032;-59
2023/06/10 06:37:44;;;;;;;7.50;5.38;;;30.30;16.50;;;;;;5086370;28;20031;-60
2023/06/10 06:40:10;;;;;;;7.10;5.22;;;30.60;17.40;;;;;;5088748;28;20028;-59
2023/06/10 06:42:36;;;;;;;7.65;5.00;;;30.50;16.90;;;;;;5105798;28;20262;-58
2023/06/10 06:45:02;;;;;;;7.63;4.97;;;29.60;17.70;;;;;;5089281;28;20036;-56
2023/06/10 06:47:27;;;;;;;8.90;5.97;;;28.70;18.90;;;;;;5105811;28;20028;-59
2023/06/10 06:49:53;;;;;;;11.52;5.32;;;27.70;20.40;;;;;;5089319;28;20031;-60
2023/06/10 06:52:19;;;;;;;6.13;4.93;;;27.30;21.70;;;;;;5106414;28;20024;-59
2023/06/10 06:54:44;;;;;;;9.73;5.15;;;26.80;22.30;;;;;;5088731;28;20038;-59
2023/06/10 06:57:10;;;;;;;7.20;4.90;;;26.60;23.30;;;;;;5106028;28;20491;-60
2023/06/10 06:59:35;;;;;;;7.80;5.40;;;26.60;23.80;;;;;;5108954;28;20506;-60
2023/06/10 07:02:01;;;;;;;12.05;5.85;;;26.80;23.60;;;;;;5092445;28;20357;-59
2023/06/10 07:04:26;;;;;;;8.43;5.28;;;27.20;22.90;;;;;;5107173;28;20035;-58
2023/06/10 07:06:52;;;;;;;8.45;4.78;;;28.40;21.50;;;;;;5084061;28;20036;-59
2023/06/10 07:09:17;;;;;;;7.68;5.30;;;29.70;20.10;;;;;;5108708;28;20027;-59
2023/06/10 07:11:43;;;;;;;9.48;4.63;;;30.40;18.00;;;;;;5088998;28;20035;-59
2023/06/10 07:14:08;;;;;;;6.65;4.15;;;31.30;17.30;;;;;;5108592;28;20024;-59
2023/06/10 07:16:34;;;;;;;5.65;4.10;;;32.30;15.90;;;;;;5088009;28;20332;-59
2023/06/10 07:19:00;;;;;;;5.35;3.88;;;33.50;15.00;;;;;;5108373;28;20110;-60
2023/06/10 07:21:25;;;;;;;7.85;4.78;;;34.50;13.50;;;;;;5086599;28;20407;-60
2023/06/10 07:23:54;;;;;;;9.93;4.75;;;34.40;10.70;;;;;;5108781;28;20026;-60
2023/06/10 07:26:21;;;;;;;8.13;4.90;;;34.20;11.70;;;;;;5087917;28;20411;-60
2023/06/10 07:28:47;;;;;;;8.15;5.05;;;34.70;11.10;;;;;;5097250;28;20073;-60
2023/06/10 07:31:12;;;;;;;9.32;6.10;;;33.80;11.40;;;;;;5098373;28;20032;-59
2023/06/10 07:33:41;;;;;;;10.38;5.45;;;33.20;10.60;;;;;;5085723;28;20059;-60
2023/06/10 07:36:07;;;;;;;10.98;5.30;;;31.70;12.20;;;;;;5105909;28;20030;-47
2023/06/10 07:38:32;;;;;;;9.52;5.25;;;30.50;14.50;;;;;;5086404;28;20061;-61
2023/06/10 07:40:58;;;;;;;6.15;5.45;;;30.60;14.80;;;;;;5107543;28;20481;-59
2023/06/10 07:43:24;;;;;;;8.20;4.97;;;29.70;15.90;;;;;;5084322;28;20103;-59
2023/06/10 07:45:50;;;;;;;5.95;5.32;;;30.00;15.50;;;;;;5089805;28;20217;-62
2023/06/10 07:48:15;;;;;;;9.00;5.22;;;30.20;15.00;;;;;;5107385;28;20441;-61
2023/06/10 07:50:41;;;;;;;8.40;5.45;;;30.90;14.30;;;;;;5086461;28;20028;-61
2023/06/10 07:53:06;;;;;;;8.60;5.25;;;31.40;13.60;;;;;;5107390;28;20031;-60
2023/06/10 07:55:32;;;;;;;9.57;5.32;;;31.30;13.40;;;;;;5086639;28;20054;-60
2023/06/10 07:57:57;;;;;;;8.57;5.60;;;31.10;13.50;;;;;;5107086;28;20069;-61
2023/06/10 08:00:23;;;;;;;6.65;5.50;;;31.50;12.50;;;;;;5086263;28;20059;-60
2023/06/10 08:02:48;;;;;;;11.52;5.70;;;31.80;12.00;;;;;;5107416;28;20039;-61
2023/06/10 08:05:14;;;;;;;8.02;5.20;;;31.20;12.50;;;;;;5091468;28;20027;-60
2023/06/10 08:07:40;;;;;;;10.60;5.82;;;31.20;13.20;;;;;;5086757;28;20320;-61
2023/06/10 08:10:06;;;;;;;7.80;4.80;;;32.10;12.50;;;;;;5093283;28;20561;-60
2023/06/10 08:12:33;;;;;;;8.30;5.93;;;33.10;11.70;;;;;;5087978;28;20058;-61
2023/06/10 08:14:58;;;;;;;7.22;5.22;;;34.20;8.60;;;;;;5105226;28;20085;-61
2023/06/10 08:17:24;;;;;;;6.25;5.22;;;33.50;8.90;;;;;;5087916;28;20302;-61
2023/06/10 08:19:49;;;;;;;10.55;5.35;;;33.20;9.20;;;;;;5093103;28;20067;-61
2023/06/10 08:22:15;;;;;;;7.40;6.10;;;33.20;8.00;;;;;;5107537;28;20035;-62
2023/06/10 08:24:40;;;;;;;7.28;5.15;;;32.60;8.80;;;;;;5092326;28;20491;-63
2023/06/10 08:27:06;;;;;;;6.80;4.80;;;33.00;8.90;;;;;;5107769;28;20020;-61
2023/06/10 08:29:32;;;;;;;7.97;5.30;;;34.10;8.10;;;;;;5091002;28;20039;-63
2023/06/10 08:31:58;;;;;;;8.38;4.65;;;33.80;7.60;;;;;;5107725;28;20433;-62
2023/06/10 08:34:23;;;;;;;5.35;4.85;;;33.90;6.30;;;;;;5089523;28;20447;-63
2023/06/10 08:36:55;;;;;;;7.07;5.35;;;33.90;7.20;;;;;;5107781;28;20070;-62
2023/06/10 08:39:20;;;;;;;7.72;5.43;;;33.90;6.40;;;;;;5072295;28;20035;-62
2023/06/10 08:42:11;;;;;;;6.57;5.03;;;32.90;7.50;;;;;;5107849;28;20023;-62
2023/06/10 08:44:38;;;;;;;5.35;4.85;;;32.30;8.30;;;;;;5075700;28;20042;-62
2023/06/10 08:47:11;;;;;;;10.70;4.97;;;31.70;8.50;;;;;;5107474;28;20026;-62
2023/06/10 08:49:41;;;;;;;7.00;5.03;;;31.30;9.00;;;;;;5079206;28;20032;-63
2023/06/10 08:52:07;;;;;;;9.27;6.28;;;30.90;9.80;;;;;;5111662;28;20303;-62
2023/06/10 08:54:37;;;;;;;9.20;5.50;;;30.20;9.60;;;;;;5094709;28;20537;-63
2023/06/10 08:57:06;;;;;;;6.72;5.00;;;29.90;10.20;;;;;;5111094;28;20024;-61
2023/06/10 08:59:31;;;;;;;5.82;5.22;;;30.10;10.20;;;;;;5094264;28;20693;-63
2023/06/10 09:01:58;;;;;;;6.93;5.40;;;30.10;10.20;;;;;;5111406;28;20487;-63
2023/06/10 09:04:24;;;;;;;5.55;5.03;;;30.30;10.40;;;;;;5091557;28;20101;-61
2023/06/10 09:06:50;;;;;;;8.13;5.13;;;30.30;10.00;;;;;;5106455;28;20214;-63
2023/06/10 09:09:16;;;;;;;5.05;4.32;;;30.10;10.30;;;;;;5091997;28;20449;-63
2023/06/10 09:11:44;;;;;;;7.78;4.88;;;30.30;10.10;;;;;;5111261;28;20085;-62
2023/06/10 09:14:11;;;;;;;5.57;5.00;;;30.30;10.20;;;;;;5091378;28;20034;-63
2023/06/10 09:16:38;;;;;;;7.28;5.70;;;30.20;10.00;;;;;;5111067;28;20031;-63
2023/06/10 09:19:07;;;;;;;6.90;5.72;;;29.70;10.60;;;;;;5092859;28;20020;-61
2023/06/10 09:21:35;;;;;;;7.97;5.35;;;29.30;11.00;;;;;;5088970;28;20532;-62
2023/06/10 09:24:01;;;;;;;7.70;5.75;;;29.30;11.20;;;;;;5108479;28;20546;-62
2023/06/10 09:26:29;;;;;;;9.98;5.43;;;29.20;11.70;;;;;;5110830;28;20027;-63
2023/06/10 09:29:11;;;;;;;6.72;5.68;;;29.20;11.30;;;;;;5098339;28;20058;-62
2023/06/10 09:31:38;;;;;;;7.28;5.65;;;29.40;12.40;;;;;;5110798;28;20023;-62
2023/06/10 09:34:11;;;;;;;10.88;5.10;;;29.30;11.10;;;;;;5088724;28;20035;-61
2023/06/10 09:36:38;;;;;;;7.22;5.03;;;29.50;12.10;;;;;;5110492;28;20023;-63
2023/06/10 09:39:04;;;;;;;10.63;5.10;;;29.80;11.90;;;;;;5073273;28;20086;-62
2023/06/10 09:41:34;;;;;;;4.68;4.22;;;30.20;11.60;;;;;;5109440;28;20023;-62
2023/06/10 09:44:00;;;;;;;5.88;5.25;;;30.90;11.10;;;;;;5088854;28;20028;-62
2023/06/10 09:46:32;;;;;;;7.97;5.30;;;31.20;11.10;;;;;;5109355;28;20080;-62
2023/06/10 09:48:58;;;;;;;6.20;5.13;;;31.30;11.20;;;;;;5081484;28;20024;-62
2023/06/10 09:51:23;;;;;;;5.55;4.93;;;30.60;11.30;;;;;;5109219;28;20070;-62
2023/06/10 09:53:51;;;;;;;7.97;5.18;;;30.10;12.20;;;;;;5088460;28;20048;-62
2023/06/10 09:56:16;;;;;;;7.97;5.65;;;29.90;12.40;;;;;;5109517;28;20024;-62
2023/06/10 09:58:43;;;;;;;6.13;5.40;;;29.50;12.40;;;;;;5098747;28;20027;-61
2023/06/10 10:01:10;;;;;;;6.90;5.18;;;28.70;12.80;;;;;;5089620;28;20028;-62
2023/06/10 10:03:50;;;;;;;9.82;5.80;;;28.90;13.10;;;;;;5105786;28;20105;-61
2023/06/10 10:06:17;;;;;;;6.93;5.40;;;29.20;12.00;;;;;;5084376;28;20020;-62
2023/06/10 10:08:43;;;;;;;10.75;6.30;;;29.40;12.30;;;;;;5107390;28;20028;-62
2023/06/10 10:11:10;;;;;;;6.10;5.13;;;28.60;12.30;;;;;;5089630;28;20032;-62
2023/06/10 10:13:37;;;;;;;6.22;4.60;;;28.60;12.40;;;;;;5107206;28;20019;-62
2023/06/10 10:16:10;;;;;;;5.95;4.40;;;28.40;13.40;;;;;;5094732;28;20015;-61
2023/06/10 10:18:41;;;;;;;4.22;3.72;;;28.40;12.30;;;;;;5107690;28;20032;-62
2023/06/10 10:21:12;;;;;;;6.03;3.90;;;28.70;12.10;;;;;;5069224;28;20064;-62
2023/06/10 10:24:01;;;;;;;5.32;3.50;;;29.10;12.00;;;;;;5088019;28;20028;-62
2023/06/10 10:26:27;;;;;;;5.78;3.88;;;29.30;11.00;;;;;;5069033;28;20025;-62
2023/06/10 10:29:10;;;;;;;3.95;3.38;;;29.10;10.80;;;;;;5093783;28;20044;-62
2023/06/10 10:31:37;;;;;;;4.97;4.00;;;29.20;9.80;;;;;;5068982;28;20024;-61
2023/06/10 10:34:11;;;;;;;4.82;3.20;;;28.90;10.20;;;;;;5092768;28;20145;-61
2023/06/10 10:36:37;;;;;;;3.97;3.58;;;28.80;10.80;;;;;;5068476;28;20642;-62
2023/06/10 10:39:04;;;;;;;4.68;3.85;;;28.20;11.50;;;;;;5092301;28;20054;-61
2023/06/10 10:41:32;;;;;;;6.80;4.20;;;28.00;12.10;;;;;;5108518;28;20937;-63
2023/06/10 10:43:58;;;;;;;7.03;3.65;;;27.70;11.40;;;;;;5087152;28;20028;-61
2023/06/10 10:46:24;;;;;;;7.35;3.97;;;27.20;12.40;;;;;;5078180;28;20040;-62
2023/06/10 10:48:54;;;;;;;5.22;4.13;;;27.30;12.80;;;;;;5077210;28;20050;-61
2023/06/10 10:51:20;;;;;;;3.70;3.40;;;27.20;12.90;;;;;;5083006;28;20067;-63
2023/06/10 10:54:14;;;;;;;5.45;3.80;;;27.10;13.00;;;;;;5105861;28;20024;-62
2023/06/10 10:57:09;;;;;;;6.43;4.20;;;27.30;13.50;;;;;;5069921;28;20036;-62
2023/06/10 10:59:49;;;;;;;4.38;3.95;;;27.30;14.40;;;;;;5083554;28;20038;-62
2023/06/10 11:02:31;;;;;;;4.72;4.30;;;27.40;13.80;;;;;;5106429;28;20023;-63
2023/06/10 11:04:57;;;;;;;6.47;5.03;;;27.50;13.50;;;;;;5068227;28;20097;-62
2023/06/10 11:07:24;;;;;;;5.60;4.50;;;27.60;13.40;;;;;;5076531;28;20028;-61
2023/06/10 11:10:09;;;;;;;8.43;5.93;;;27.80;15.00;;;;;;5094521;28;20118;-62
2023/06/10 11:12:42;;;;;;;22.63;6.50;;;27.60;15.10;;;;;;5090344;28;20067;-63
2023/06/10 11:15:08;;;;;;;8.13;6.32;;;27.40;16.10;;;;;;5101186;28;20023;-62
2023/06/10 11:17:34;;;;;;;10.80;6.50;;;27.20;16.00;;;;;;5105409;28;20102;-62
2023/06/10 11:20:00;;;;;;;10.05;5.72;;;27.30;17.10;;;;;;5075010;28;20056;-62
2023/06/10 11:22:25;;;;;;;8.73;5.90;;;27.40;16.70;;;;;;5096882;28;20036;-61
2023/06/10 11:24:51;;;;;;;9.52;6.45;;;27.30;17.00;;;;;;5089784;28;20036;-62
2023/06/10 11:27:24;;;;;;;8.60;6.50;;;27.30;16.40;;;;;;5105312;28;20039;-62
2023/06/10 11:29:56;;;;;;;9.23;6.07;;;27.40;17.30;;;;;;5065213;28;20412;-62
2023/06/10 11:32:27;;;;;;;9.43;6.60;;;27.10;17.20;;;;;;5094900;28;20039;-61
2023/06/10 11:34:53;;;;;;;8.13;6.45;;;27.10;17.50;;;;;;5070440;28;20063;-62
2023/06/10 11:37:19;;;;;;;8.25;6.28;;;27.00;17.80;;;;;;5085165;28;20481;-62
2023/06/10 11:39:45;;;;;;;7.32;6.15;;;27.00;17.40;;;;;;5091363;28;20044;-61
2023/06/10 11:42:11;;;;;;;7.95;6.40;;;27.00;17.60;;;;;;5106555;28;20560;-61
2023/06/10 11:44:37;;;;;;;7.65;6.38;;;27.00;16.80;;;;;;5074029;28;20377;-62
2023/06/10 11:47:03;;;;;;;7.93;5.97;;;27.00;16.70;;;;;;5105269;28;20035;-60
2023/06/10 11:49:29;;;;;;;8.57;5.72;;;27.20;17.80;;;;;;5092846;28;20028;-61
2023/06/10 11:51:54;;;;;;;8.43;6.05;;;27.20;17.20;;;;;;5105967;28;20038;-62
2023/06/10 11:54:21;;;;;;;10.00;6.38;;;27.30;16.90;;;;;;5093957;28;20038;-63
2023/06/10 11:56:48;;;;;;;6.90;6.20;;;27.10;17.60;;;;;;5084818;28;20028;-63
2023/06/10 11:59:14;;;;;;;8.48;5.78;;;27.00;17.50;;;;;;5102953;28;20035;-64
2023/06/10 12:01:44;;;;;;;10.23;6.03;;;27.10;18.00;;;;;;5087329;28;20032;-63
2023/06/10 12:04:12;;;;;;;10.70;7.03;;;27.10;18.00;;;;;;5103847;28;20027;-63
2023/06/10 12:06:47;;;;;;;11.77;6.95;;;27.10;18.10;;;;;;5099545;28;20050;-63
2023/06/10 12:09:21;;;;;;;9.43;6.97;;;27.00;18.60;;;;;;5088551;28;20053;-63
2023/06/10 12:11:51;;;;;;;9.48;6.75;;;27.00;19.00;;;;;;5078081;28;20519;-62
2023/06/10 12:14:36;;;;;;;9.13;6.50;;;27.10;18.90;;;;;;5104340;28;20031;-63
2023/06/10 12:17:02;;;;;;;9.52;6.80;;;27.20;18.70;;;;;;5070883;28;20039;-64
2023/06/10 12:19:28;;;;;;;9.32;6.75;;;27.20;18.30;;;;;;5104012;28;20114;-63
2023/06/10 12:21:53;;;;;;;8.90;6.25;;;27.10;17.30;;;;;;5086430;28;20165;-63
2023/06/10 12:24:19;;;;;;;11.85;6.15;;;27.10;18.30;;;;;;5107748;28;20023;-63
2023/06/10 12:26:44;;;;;;;10.25;6.20;;;27.10;18.30;;;;;;5090987;28;20085;-62
2023/06/10 12:29:24;;;;;;;8.18;6.38;;;27.10;18.10;;;;;;5108113;28;20055;-63
2023/06/10 12:32:04;;;;;;;6.25;5.65;;;27.20;18.40;;;;;;5070078;28;20062;-64
2023/06/10 12:34:37;;;;;;;7.57;6.05;;;27.20;19.10;;;;;;5096270;28;20120;-64
2023/06/10 12:37:05;;;;;;;10.90;6.32;;;27.30;18.30;;;;;;5070605;28;20035;-62
2023/06/10 12:39:32;;;;;;;6.97;5.45;;;27.30;17.40;;;;;;5107997;28;20088;-63
2023/06/10 12:41:58;;;;;;;8.55;6.10;;;27.20;16.20;;;;;;5077138;28;20162;-64
2023/06/10 12:44:34;;;;;;;9.77;6.05;;;27.10;17.00;;;;;;5106639;28;20114;-64
2023/06/10 12:47:06;;;;;;;8.85;6.20;;;27.10;18.00;;;;;;5089865;28;20043;-63